Time;durP1;ratioP1;P1;durP2;ratioP2;P2;SDS_P1;SDS_P2;PMS_P1;PMS_P2;Temp;Humidity;BMP_temperature;BMP_pressure;BME280_temperature;BME280_humidity;BME280_pressure;Samples;Min_cycle;Max_cycle;Signal;HPM_P1;HPM_P2
2022/01/02 00:02:12;;;;;;;10.38;5.90;;;10.40;99.90;;;;;;6733944;88;20178;-75
2022/01/02 00:12:17;;;;;;;8.68;5.00;;;10.30;99.90;;;;;;6741417;88;20202;-75
2022/01/02 00:22:20;;;;;;;8.73;4.90;;;10.20;99.90;;;;;;6732324;88;20324;-74
2022/01/02 00:32:21;;;;;;;9.43;4.25;;;10.20;99.90;;;;;;6737152;88;20209;-75
2022/01/02 00:42:34;;;;;;;10.18;5.18;;;10.20;99.90;;;;;;6745805;87;20181;-75
2022/01/02 00:52:37;;;;;;;9.68;5.55;;;10.20;99.90;;;;;;6735948;88;20666;-75
2022/01/02 01:02:48;;;;;;;13.52;5.62;;;10.20;99.90;;;;;;6741701;88;20209;-75
2022/01/02 01:13:30;;;;;;;12.23;5.62;;;10.30;99.90;;;;;;6762839;76;21064;-76
2022/01/02 01:23:30;;;;;;;11.45;6.12;;;10.30;99.90;;;;;;6750604;87;20573;-77
2022/01/02 01:33:31;;;;;;;12.60;6.43;;;10.30;99.90;;;;;;6739234;88;20233;-77
2022/01/02 01:43:50;;;;;;;12.32;6.07;;;10.20;99.90;;;;;;6737497;88;20230;-76
2022/01/02 01:53:51;;;;;;;11.68;6.40;;;10.30;99.90;;;;;;6740810;88;20204;-76
2022/01/02 02:03:52;;;;;;;12.13;6.43;;;10.20;99.90;;;;;;6745692;88;20176;-76
2022/01/02 02:13:53;;;;;;;13.05;6.80;;;10.30;99.90;;;;;;6741940;88;20580;-76
2022/01/02 02:23:54;;;;;;;15.57;7.65;;;10.30;99.90;;;;;;6751052;87;20184;-76
2022/01/02 02:33:55;;;;;;;15.18;6.93;;;10.20;99.90;;;;;;6750228;88;20217;-76
2022/01/02 02:44:03;;;;;;;12.70;6.97;;;10.30;99.90;;;;;;6740990;88;20186;-77
2022/01/02 02:54:05;;;;;;;14.45;6.82;;;10.20;99.90;;;;;;6741602;88;20359;-76
2022/01/02 03:04:05;;;;;;;12.88;6.70;;;10.20;99.90;;;;;;6742750;88;20530;-76
2022/01/02 03:14:09;;;;;;;11.60;6.20;;;10.20;99.90;;;;;;6738217;88;20220;-76
2022/01/02 03:24:09;;;;;;;10.68;6.03;;;10.30;99.90;;;;;;6746681;87;20214;-75
2022/01/02 03:34:10;;;;;;;10.43;5.78;;;10.40;99.90;;;;;;6745260;88;20223;-77
2022/01/02 03:44:10;;;;;;;9.70;5.57;;;10.50;99.90;;;;;;6746376;88;20207;-76
2022/01/02 03:54:11;;;;;;;14.18;5.32;;;10.50;99.90;;;;;;6734884;88;20763;-76
2022/01/02 04:04:11;;;;;;;9.50;5.30;;;10.50;99.90;;;;;;6738652;88;20604;-76
2022/01/02 04:14:12;;;;;;;9.10;4.80;;;10.50;99.90;;;;;;6742271;88;20209;-76
2022/01/02 04:24:13;;;;;;;7.72;4.30;;;10.50;99.90;;;;;;6735062;88;20780;-77
2022/01/02 04:34:13;;;;;;;8.82;4.75;;;10.50;99.90;;;;;;6742102;88;20192;-77
2022/01/02 04:44:14;;;;;;;9.43;5.15;;;10.50;99.90;;;;;;6740477;88;20206;-77
2022/01/02 04:54:14;;;;;;;12.60;5.78;;;10.50;99.90;;;;;;6738034;88;20211;-78
2022/01/02 05:04:15;;;;;;;11.30;5.40;;;10.40;99.90;;;;;;6743558;88;20636;-77
2022/01/02 05:14:15;;;;;;;9.02;5.12;;;10.40;99.90;;;;;;6735448;88;20197;-76
2022/01/02 05:24:16;;;;;;;9.40;4.80;;;10.30;99.90;;;;;;6737899;88;20285;-77
2022/01/02 05:34:17;;;;;;;7.62;4.87;;;10.20;99.90;;;;;;6747018;88;20241;-77
2022/01/02 05:44:18;;;;;;;14.50;5.53;;;10.20;99.90;;;;;;6744835;88;20758;-77
2022/01/02 05:54:19;;;;;;;9.90;5.68;;;10.20;99.90;;;;;;6738936;88;20228;-77
2022/01/02 06:04:19;;;;;;;8.27;4.57;;;10.10;99.90;;;;;;6747833;88;20193;-77
2022/01/02 06:14:20;;;;;;;10.68;4.70;;;10.00;99.90;;;;;;6742845;88;21088;-77
2022/01/02 06:24:20;;;;;;;9.07;5.18;;;10.00;99.90;;;;;;6744425;88;20653;-77
2022/01/02 06:34:21;;;;;;;9.20;4.30;;;10.00;99.90;;;;;;6743004;88;20206;-77
2022/01/02 06:44:21;;;;;;;10.95;4.40;;;10.10;99.90;;;;;;6743600;88;20234;-76
2022/01/02 06:54:22;;;;;;;11.25;4.75;;;10.10;99.90;;;;;;6741708;88;20198;-77
2022/01/02 07:04:22;;;;;;;8.68;3.72;;;10.20;99.90;;;;;;6742995;88;20692;-77
2022/01/02 07:14:26;;;;;;;8.68;4.07;;;10.20;99.90;;;;;;6741867;77;20226;-76
2022/01/02 07:24:27;;;;;;;7.65;4.00;;;10.20;99.90;;;;;;6721098;88;20174;-76
2022/01/02 07:34:28;;;;;;;6.50;3.55;;;10.20;99.90;;;;;;6715993;88;20217;-76
2022/01/02 07:44:28;;;;;;;5.07;2.83;;;10.40;99.90;;;;;;6718308;88;20240;-76
2022/01/02 07:54:29;;;;;;;6.85;3.37;;;10.60;99.90;;;;;;6721463;88;20247;-76
2022/01/02 08:04:30;;;;;;;5.97;3.00;;;10.60;99.90;;;;;;6719625;88;20203;-76
2022/01/02 08:14:31;;;;;;;4.20;2.62;;;10.50;99.90;;;;;;6720026;88;20279;-76
2022/01/02 08:24:31;;;;;;;6.70;2.37;;;10.70;99.90;;;;;;6717988;88;20177;-76
2022/01/02 08:34:32;;;;;;;6.00;2.10;;;10.80;99.90;;;;;;6719088;88;20410;-76
2022/01/02 08:44:32;;;;;;;4.68;1.60;;;11.00;99.90;;;;;;6719396;88;20203;-76
2022/01/02 08:54:33;;;;;;;4.37;1.98;;;11.40;99.90;;;;;;6719080;88;20708;-76
2022/01/02 09:04:34;;;;;;;4.30;2.53;;;11.30;99.90;;;;;;6724512;88;20575;-76
2022/01/02 09:14:35;;;;;;;4.47;2.30;;;10.90;99.90;;;;;;6726346;88;20723;-75
2022/01/02 09:24:35;;;;;;;4.68;2.08;;;10.90;99.90;;;;;;6728636;88;20205;-77
2022/01/02 09:34:36;;;;;;;4.93;2.10;;;11.00;99.90;;;;;;6721410;88;20379;-77
2022/01/02 09:44:36;;;;;;;3.87;1.60;;;11.40;99.90;;;;;;6725078;88;20200;-76
2022/01/02 09:54:37;;;;;;;3.87;1.87;;;11.90;99.90;;;;;;6718588;88;20509;-77
2022/01/02 10:04:40;;;;;;;4.60;2.00;;;12.20;99.90;;;;;;6714939;88;20685;-75
2022/01/02 10:14:41;;;;;;;4.12;1.70;;;12.70;99.90;;;;;;6718552;88;20205;-76
2022/01/02 10:24:46;;;;;;;5.12;2.00;;;12.90;99.90;;;;;;6717042;88;20244;-77
2022/01/02 10:34:48;;;;;;;;;;;13.10;99.90;;;;;;6719593;88;20546;-77
2022/01/02 10:44:48;;;;;;;4.78;2.00;;;13.10;99.90;;;;;;6716664;88;20085;-78
2022/01/02 10:54:49;;;;;;;5.43;1.83;;;13.40;99.90;;;;;;6717906;88;20213;-76
2022/01/02 11:05:04;;;;;;;4.50;2.00;;;14.10;99.90;;;;;;6723646;88;20190;-77
2022/01/02 11:15:11;;;;;;;3.30;1.90;;;14.10;99.90;;;;;;6717839;88;20316;-76
2022/01/02 11:25:27;;;;;;;4.68;2.10;;;14.70;99.90;;;;;;6714762;88;22582;-77
2022/01/02 11:35:31;;;;;;;5.20;1.98;;;14.70;99.90;;;;;;6714509;88;20194;-77
2022/01/02 11:45:42;;;;;;;4.80;1.98;;;14.70;99.90;;;;;;6714041;88;20612;-76
2022/01/02 11:55:49;;;;;;;3.55;1.90;;;14.60;99.90;;;;;;6714332;88;20216;-77
2022/01/02 12:06:23;;;;;;;3.33;1.85;;;15.20;99.90;;;;;;6714354;88;20182;-77
2022/01/02 12:16:42;;;;;;;5.32;1.95;;;15.60;99.90;;;;;;6715773;88;20185;-76
2022/01/02 12:26:42;;;;;;;3.75;1.92;;;16.20;99.90;;;;;;6723295;88;20205;-76
2022/01/02 12:36:46;;;;;;;4.75;1.75;;;15.40;99.90;;;;;;6719326;88;20207;-77
2022/01/02 12:46:57;;;;;;;4.68;2.20;;;15.10;99.90;;;;;;6715858;88;20212;-76
2022/01/02 12:57:01;;;;;;;4.47;2.05;;;14.80;99.90;;;;;;6716760;88;20170;-77
2022/01/02 13:07:13;;;;;;;5.45;1.83;;;15.00;99.90;;;;;;6718304;88;20280;-76
2022/01/02 13:17:26;;;;;;;3.87;1.37;;;14.60;99.90;;;;;;6709948;88;20628;-77
2022/01/02 13:27:27;;;;;;;4.68;1.60;;;15.50;99.90;;;;;;6717273;88;20189;-76
2022/01/02 13:37:39;;;;;;;4.18;1.80;;;15.20;99.90;;;;;;6715496;88;20239;-77
2022/01/02 13:47:42;;;;;;;5.37;1.62;;;14.70;99.90;;;;;;6714459;88;20196;-77
2022/01/02 13:57:42;;;;;;;4.18;1.45;;;14.30;99.90;;;;;;6712940;88;20604;-77
2022/01/02 14:07:43;;;;;;;4.25;1.40;;;14.20;99.90;;;;;;6723146;88;20217;-77
2022/01/02 14:17:45;;;;;;;4.20;1.20;;;14.10;99.90;;;;;;6725868;88;20272;-76
2022/01/02 14:27:52;;;;;;;2.60;1.35;;;14.20;99.90;;;;;;6726556;88;20585;-77
2022/01/02 14:37:53;;;;;;;4.62;1.55;;;14.00;99.90;;;;;;6723025;88;20205;-77
2022/01/02 14:47:54;;;;;;;3.70;1.40;;;14.10;99.90;;;;;;6724773;88;20691;-77
2022/01/02 14:57:54;;;;;;;2.70;1.30;;;14.20;99.90;;;;;;6722620;88;20280;-76
2022/01/02 15:07:55;;;;;;;3.70;1.20;;;14.10;99.90;;;;;;6722714;88;20332;-76
2022/01/02 15:17:56;;;;;;;4.35;1.52;;;14.00;99.90;;;;;;6721483;88;20203;-76
2022/01/02 15:27:57;;;;;;;4.12;1.20;;;14.00;99.90;;;;;;6717335;88;20699;-76
2022/01/02 15:37:57;;;;;;;4.50;1.48;;;13.90;99.90;;;;;;6717360;88;20201;-76
2022/01/02 15:47:58;;;;;;;3.60;1.33;;;13.80;99.90;;;;;;6714330;88;20694;-75
2022/01/02 15:57:59;;;;;;;3.87;1.25;;;13.80;99.90;;;;;;6715603;88;20263;-75
2022/01/02 16:07:59;;;;;;;3.92;1.33;;;13.60;99.90;;;;;;6714723;88;20784;-75
2022/01/02 16:18:00;;;;;;;3.47;1.50;;;13.50;99.90;;;;;;6719938;88;20252;-76
2022/01/02 16:28:00;;;;;;;3.87;1.55;;;13.50;99.90;;;;;;6716120;88;20240;-75
2022/01/02 16:38:01;;;;;;;3.97;1.77;;;13.40;99.90;;;;;;6713803;88;20243;-75
2022/01/02 16:48:02;;;;;;;3.60;1.40;;;13.50;99.90;;;;;;6716418;88;20639;-76
2022/01/02 16:58:04;;;;;;;4.47;1.80;;;13.30;99.90;;;;;;6720674;88;20226;-75
2022/01/02 17:08:05;;;;;;;4.90;1.48;;;13.20;99.90;;;;;;6716905;88;20368;-75
2022/01/02 17:18:05;;;;;;;3.15;1.25;;;13.20;99.90;;;;;;6721146;88;20252;-76
2022/01/02 17:28:06;;;;;;;5.97;1.50;;;13.10;99.90;;;;;;6717213;88;20660;-75
2022/01/02 17:38:08;;;;;;;4.12;1.62;;;13.00;99.90;;;;;;6710743;88;20986;-76
2022/01/02 17:48:10;;;;;;;4.62;1.62;;;12.90;99.90;;;;;;6717353;88;20259;-76
2022/01/02 17:58:11;;;;;;;5.45;1.70;;;13.00;99.90;;;;;;6711084;88;20190;-75
2022/01/02 18:08:11;;;;;;;3.70;1.67;;;12.90;99.90;;;;;;6716858;88;20335;-75
2022/01/02 18:18:12;;;;;;;4.03;1.80;;;12.80;99.90;;;;;;6721775;88;20235;-75
2022/01/02 18:28:15;;;;;;;5.85;1.75;;;12.70;99.90;;;;;;6713503;88;20177;-75
2022/01/02 18:38:16;;;;;;;5.10;1.67;;;12.70;99.90;;;;;;6717798;88;20731;-75
2022/01/02 18:48:17;;;;;;;5.70;1.70;;;12.60;99.90;;;;;;6717845;88;20268;-75
2022/01/02 18:58:18;;;;;;;5.78;1.90;;;12.50;99.90;;;;;;6713835;88;20221;-75
2022/01/02 19:08:19;;;;;;;3.80;1.70;;;12.30;99.90;;;;;;6715264;88;20205;-75
2022/01/02 19:18:20;;;;;;;4.25;1.20;;;12.50;99.90;;;;;;6750792;76;20193;-79
2022/01/02 19:28:20;;;;;;;3.83;0.85;;;12.50;99.90;;;;;;6759914;88;20573;-79
2022/01/02 19:38:21;;;;;;;2.73;0.80;;;12.70;99.90;;;;;;6758817;88;20183;-78
2022/01/02 19:48:21;;;;;;;2.58;0.80;;;12.80;99.90;;;;;;6760463;88;20583;-78
2022/01/02 19:58:22;;;;;;;5.15;0.82;;;12.90;99.90;;;;;;6736088;88;20636;-77
2022/01/02 20:08:22;;;;;;;2.67;0.70;;;13.10;99.90;;;;;;6735511;88;20582;-77
2022/01/02 20:18:23;;;;;;;2.95;0.60;;;12.90;99.90;;;;;;6735832;88;20205;-78
2022/01/02 20:28:24;;;;;;;3.97;0.90;;;12.70;99.90;;;;;;6731750;88;20242;-77
2022/01/02 20:38:24;;;;;;;4.32;0.80;;;12.50;99.90;;;;;;6734748;88;20243;-77
2022/01/02 20:48:25;;;;;;;4.20;0.93;;;12.60;99.90;;;;;;6735169;88;20254;-77
2022/01/02 20:58:26;;;;;;;4.53;0.80;;;12.40;99.90;;;;;;6744825;88;20219;-77
2022/01/02 21:08:27;;;;;;;4.40;1.20;;;11.90;99.90;;;;;;6738036;88;20238;-77
2022/01/02 21:18:29;;;;;;;2.62;0.60;;;11.90;99.90;;;;;;6739534;88;20309;-78
2022/01/02 21:28:29;;;;;;;2.25;0.60;;;12.00;99.90;;;;;;6738083;88;20184;-78
2022/01/02 21:38:30;;;;;;;3.70;0.60;;;11.90;99.90;;;;;;6739105;88;20708;-78
2022/01/02 21:48:31;;;;;;;5.45;1.00;;;12.10;99.90;;;;;;6734109;88;20615;-79
2022/01/02 21:58:31;;;;;;;5.10;0.68;;;12.20;99.90;;;;;;6739541;88;20210;-78
2022/01/02 22:08:32;;;;;;;3.35;0.50;;;12.50;99.90;;;;;;6739884;88;20196;-77
2022/01/02 22:18:34;;;;;;;4.28;0.70;;;12.30;99.90;;;;;;6737412;88;21153;-78
2022/01/02 22:28:35;;;;;;;4.50;0.70;;;11.80;99.90;;;;;;6738447;88;20664;-77
2022/01/02 22:38:35;;;;;;;4.20;0.82;;;11.50;99.90;;;;;;6738075;88;20223;-77
2022/01/02 22:48:37;;;;;;;6.37;0.90;;;11.50;99.90;;;;;;6737568;88;20278;-77
2022/01/02 22:58:40;;;;;;;5.55;0.90;;;11.50;99.90;;;;;;6737041;88;20601;-76
2022/01/02 23:08:42;;;;;;;7.20;0.90;;;11.50;99.90;;;;;;6736706;88;20192;-77
2022/01/02 23:18:44;;;;;;;4.95;0.80;;;11.50;99.90;;;;;;6737113;88;20220;-77
2022/01/02 23:28:48;;;;;;;4.87;0.90;;;11.60;99.90;;;;;;6746869;88;20201;-78
2022/01/02 23:38:49;;;;;;;5.97;1.08;;;11.60;99.90;;;;;;6738354;88;20233;-76
2022/01/02 23:48:56;;;;;;;9.15;1.52;;;11.40;99.90;;;;;;6737558;88;20192;-76
2022/01/02 23:58:59;;;;;;;9.57;1.50;;;11.30;99.90;;;;;;6736959;88;20221;-77
